Time;durP1;ratioP1;P1;durP2;ratioP2;P2;SDS_P1;SDS_P2;PMS_P1;PMS_P2;Temp;Humidity;BMP_temperature;BMP_pressure;BME280_temperature;BME280_humidity;BME280_pressure;Samples;Min_cycle;Max_cycle;Signal;HPM_P1;HPM_P2
2021/04/17 00:02:05;;;;;;;4.67;3.10;;;;;;;-0.76;74.32;95985.27;1793665;80;21180;-70
2021/04/17 00:04:37;;;;;;;4.23;3.10;;;;;;;-0.83;74.11;95985.93;1793400;80;21279;-70
2021/04/17 00:07:07;;;;;;;5.43;3.30;;;;;;;-0.82;74.06;95983.79;1793797;80;21291;-70
2021/04/17 00:09:35;;;;;;;5.07;3.00;;;;;;;-0.78;73.72;95981.77;1763119;80;21141;-70
2021/04/17 00:12:15;;;;;;;5.70;3.17;;;;;;;-0.88;74.33;95984.91;1790537;80;21576;-70
2021/04/17 00:14:46;;;;;;;3.87;2.97;;;;;;;-0.88;73.99;95985.78;1788697;80;21121;-70
2021/04/17 00:17:16;;;;;;;3.77;2.90;;;;;;;-0.85;73.83;95986.72;1760329;80;21149;-70
2021/04/17 00:19:49;;;;;;;3.33;2.27;;;;;;;-0.89;73.80;95986.59;1788197;80;21140;-70
2021/04/17 00:22:17;;;;;;;4.73;3.03;;;;;;;-1.00;74.85;95984.52;1788449;80;21571;-70
2021/04/17 00:24:45;;;;;;;4.43;2.80;;;;;;;-1.02;74.14;95985.75;1759774;80;21176;-70
2021/04/17 00:27:14;;;;;;;4.83;2.40;;;;;;;-1.07;74.00;95979.55;1787610;80;21267;-70
2021/04/17 00:29:42;;;;;;;3.23;2.47;;;;;;;-1.00;73.79;95979.34;1788116;80;21717;-70
2021/04/17 00:32:10;;;;;;;2.40;1.73;;;;;;;-1.01;74.03;95983.61;1787905;80;21295;-70
2021/04/17 00:34:38;;;;;;;2.47;1.77;;;;;;;-1.15;73.78;95985.77;1787808;80;21161;-70
2021/04/17 00:37:09;;;;;;;5.37;3.97;;;;;;;-1.29;74.49;95994.78;1787902;80;21144;-70
2021/04/17 00:39:38;;;;;;;6.87;2.60;;;;;;;-1.33;74.24;95988.64;1787812;80;21291;-70
2021/04/17 00:42:07;;;;;;;3.47;2.23;;;;;;;-1.24;74.50;95997.11;1787781;80;21298;-70
2021/04/17 00:44:36;;;;;;;3.97;2.67;;;;;;;-1.22;74.38;95988.98;1788096;80;21670;-70
2021/04/17 00:47:07;;;;;;;4.00;2.53;;;;;;;-1.15;74.37;95986.19;1787801;80;21276;-70
2021/04/17 00:49:36;;;;;;;4.00;2.50;;;;;;;-1.09;74.44;95990.27;1756201;80;21144;-70
2021/04/17 00:52:05;;;;;;;5.70;2.67;;;;;;;-1.09;74.20;95983.78;1787885;80;21185;-70
2021/04/17 00:54:33;;;;;;;4.20;2.77;;;;;;;-1.13;74.47;95988.00;1787826;80;21135;-70
2021/04/17 00:57:02;;;;;;;4.70;2.87;;;;;;;-1.15;74.45;95985.77;1787819;80;21133;-70
2021/04/17 00:59:29;;;;;;;3.97;2.80;;;;;;;-1.22;74.22;95985.52;1787928;80;21149;-70
2021/04/17 01:01:57;;;;;;;3.77;2.50;;;;;;;-1.22;74.35;95990.70;1787915;80;21702;-70
2021/04/17 01:04:33;;;;;;;4.00;2.90;;;;;;;-1.18;74.21;95987.39;1787880;80;21282;-70
2021/04/17 01:07:30;;;;;;;5.73;2.73;;;;;;;-1.25;73.95;95984.13;1787906;80;21267;-70
2021/04/17 01:10:23;;;;;;;3.10;2.53;;;;;;;-1.33;74.38;95980.88;1788109;80;21129;-70
2021/04/17 01:12:54;;;;;;;5.43;2.73;;;;;;;-1.42;74.49;95990.03;1785934;80;21717;-70
2021/04/17 01:15:24;;;;;;;3.83;2.97;;;;;;;-1.45;74.50;95986.93;1785216;80;21445;-70
2021/04/17 01:17:56;;;;;;;5.40;2.93;;;;;;;-1.44;75.27;95980.91;1785526;80;21144;-70
2021/04/17 01:20:48;;;;;;;5.67;2.90;;;;;;;-1.60;76.27;95982.53;1785326;80;21141;-70
2021/04/17 01:23:40;;;;;;;5.33;3.70;;;;;;;-1.65;76.14;95974.61;1785131;80;21149;-70
2021/04/17 01:26:14;;;;;;;5.80;2.83;;;;;;;-1.52;75.96;95974.61;1785111;80;21086;-70
2021/04/17 01:28:54;;;;;;;3.75;2.55;;;;;;;-1.54;75.46;95980.14;1785149;80;21129;-70
2021/04/17 01:31:29;;;;;;;4.63;2.83;;;;;;;-1.55;75.74;95975.38;1785277;80;21149;-70
2021/04/17 01:34:01;;;;;;;4.43;2.80;;;;;;;-1.50;75.18;95977.26;1785083;80;21114;-70
2021/04/17 01:36:31;;;;;;;6.30;2.70;;;;;;;-1.58;74.99;95972.70;1784986;80;21295;-70
2021/04/17 01:39:12;;;;;;;6.10;3.43;;;;;;;-1.58;75.11;95971.41;1785426;80;21145;-70
2021/04/17 01:41:48;;;;;;;6.37;3.30;;;;;;;-1.51;75.43;95968.63;1784952;80;21106;-70
2021/04/17 01:44:28;;;;;;;6.03;3.03;;;;;;;-1.48;75.54;95967.84;1785376;80;21098;-70
2021/04/17 01:47:12;;;;;;;5.70;3.50;;;;;;;-1.61;75.12;95967.84;1785284;80;21555;-70
2021/04/17 01:49:45;;;;;;;6.73;3.63;;;;;;;-1.55;75.09;95971.92;1785210;80;21129;-70
2021/04/17 01:52:18;;;;;;;5.30;3.40;;;;;;;-1.62;75.66;95974.70;1785063;80;21143;-70
2021/04/17 01:54:50;;;;;;;5.70;3.75;;;;;;;-1.59;75.28;95978.72;1785330;80;21271;-70
2021/04/17 01:57:23;;;;;;;4.73;2.97;;;;;;;-1.50;75.15;95971.66;1785204;80;21170;-70
2021/04/17 01:59:52;;;;;;;5.03;3.45;;;;;;;-1.45;74.99;95973.98;1785326;80;21682;-70
2021/04/17 02:02:20;;;;;;;4.33;3.07;;;;;;;-1.46;75.28;95973.92;1785072;80;21283;-70
2021/04/17 02:04:48;;;;;;;6.03;3.60;;;;;;;-1.43;74.89;95981.39;1784898;80;21133;-70
2021/04/17 02:07:16;;;;;;;5.20;3.30;;;;;;;-1.46;74.79;95969.66;1785036;80;21114;-70
2021/04/17 02:09:43;;;;;;;5.37;2.53;;;;;;;-1.51;74.42;95971.21;1785050;80;21129;-70
2021/04/17 02:12:11;;;;;;;3.67;2.20;;;;;;;-1.60;74.47;95966.59;1784789;80;21188;-70
2021/04/17 02:14:39;;;;;;;6.27;3.13;;;;;;;-1.67;74.54;95967.63;1784991;80;21299;-70
2021/04/17 02:17:18;;;;;;;6.70;3.83;;;;;;;-1.67;74.58;95971.08;1785068;80;21275;-70
2021/04/17 02:19:56;;;;;;;5.53;3.20;;;;;;;-1.63;74.92;95960.44;1782031;80;21291;-70
2021/04/17 02:22:25;;;;;;;4.67;2.90;;;;;;;-1.64;74.94;95959.95;1785176;80;21264;-70
2021/04/17 02:24:53;;;;;;;9.40;4.17;;;;;;;-1.59;74.89;95960.99;1785037;80;21109;-70
2021/04/17 02:27:21;;;;;;;6.50;3.80;;;;;;;-1.63;75.53;95961.31;1784882;80;21153;-70
2021/04/17 02:29:55;;;;;;;6.00;3.43;;;;;;;-1.81;76.57;95958.11;1785041;80;21275;-70
2021/04/17 02:32:23;;;;;;;5.58;3.20;;;;;;;-1.82;75.91;95959.79;1785099;80;21297;-70
2021/04/17 02:34:52;;;;;;;3.63;2.73;;;;;;;-1.86;75.58;95960.53;1785238;80;21145;-70
2021/04/17 02:37:21;;;;;;;4.47;2.77;;;;;;;-1.77;75.68;95949.61;1785061;80;21260;-70
2021/04/17 02:39:48;;;;;;;4.30;3.17;;;;;;;-1.70;75.59;95952.00;1785152;80;21138;-70
2021/04/17 02:42:16;;;;;;;5.50;3.63;;;;;;;-1.72;75.89;95953.65;1784920;80;21141;-70
2021/04/17 02:44:44;;;;;;;4.47;2.97;;;;;;;-1.72;76.00;95962.28;1785148;80;21287;-70
2021/04/17 02:47:13;;;;;;;3.43;2.83;;;;;;;-1.72;75.70;95951.06;1784785;80;21138;-70
2021/04/17 02:49:41;;;;;;;5.03;3.43;;;;;;;-1.61;75.50;95949.73;1785031;80;21267;-70
2021/04/17 02:52:09;;;;;;;4.77;3.13;;;;;;;-1.60;75.21;95949.77;1785098;80;21268;-70
2021/04/17 02:54:37;;;;;;;4.63;3.00;;;;;;;-1.63;75.51;95948.80;1784995;80;21587;-70
2021/04/17 02:57:06;;;;;;;5.03;3.33;;;;;;;-1.64;75.22;95959.57;1785018;80;21292;-70
2021/04/17 02:59:33;;;;;;;4.00;2.93;;;;;;;-1.69;75.46;95949.87;1785173;80;21160;-70
2021/04/17 03:02:01;;;;;;;4.47;3.17;;;;;;;-1.83;75.10;95947.70;1785063;80;21275;-70
2021/04/17 03:04:29;;;;;;;4.20;2.83;;;;;;;-2.02;75.94;95950.46;1785231;80;21113;-70
2021/04/17 03:06:57;;;;;;;4.27;3.13;;;;;;;-2.13;76.60;95950.09;1785052;80;21590;-70
2021/04/17 03:09:24;;;;;;;5.03;3.40;;;;;;;-2.25;78.16;95953.10;1785016;80;21295;-70
2021/04/17 03:11:52;;;;;;;5.23;2.90;;;;;;;-2.21;77.77;95954.11;1784523;80;21279;-70
2021/04/17 03:14:20;;;;;;;4.33;2.87;;;;;;;-2.07;77.25;95954.17;1779151;81;21113;-70
2021/04/17 03:16:47;;;;;;;5.27;3.60;;;;;;;-1.96;76.81;95946.81;1779220;81;21283;-70
2021/04/17 03:19:17;;;;;;;3.47;2.53;;;;;;;-1.91;76.39;95949.15;1778956;80;21276;-70
2021/04/17 03:21:45;;;;;;;4.23;2.90;;;;;;;-2.05;76.92;95951.23;1779168;81;21268;-70
2021/04/17 03:24:13;;;;;;;5.30;2.87;;;;;;;-1.96;76.57;95955.86;1779366;81;21563;-70
2021/04/17 03:26:40;;;;;;;4.00;3.20;;;;;;;-1.98;76.51;95951.92;1779359;81;21259;-70
2021/04/17 03:29:08;;;;;;;4.13;2.70;;;;;;;-2.01;76.33;95953.53;1779060;81;21690;-70
2021/04/17 03:31:35;;;;;;;3.70;2.87;;;;;;;-1.91;76.19;95956.03;1779266;81;21600;-70
2021/04/17 03:34:04;;;;;;;4.27;2.87;;;;;;;-1.80;76.09;95952.97;1779234;81;21240;-70
2021/04/17 03:36:31;;;;;;;4.40;3.07;;;;;;;-1.85;75.92;95958.39;1779156;81;21296;-70
2021/04/17 03:38:59;;;;;;;6.43;3.57;;;;;;;-1.84;75.77;95957.98;1779181;81;21160;-70
2021/04/17 03:41:27;;;;;;;4.37;3.30;;;;;;;-1.75;75.65;95946.66;1779208;81;21272;-70
2021/04/17 03:43:54;;;;;;;4.13;3.00;;;;;;;-1.66;75.62;95941.81;1779181;81;21151;-70
2021/04/17 03:46:23;;;;;;;4.33;2.63;;;;;;;-1.60;75.43;95943.72;1779378;81;21259;-70
2021/04/17 03:48:51;;;;;;;6.23;4.00;;;;;;;-1.58;74.92;95948.54;1779324;81;21694;-70
2021/04/17 03:51:19;;;;;;;6.37;4.10;;;;;;;-1.76;74.70;95955.27;1779200;81;21256;-70
2021/04/17 03:53:47;;;;;;;4.50;3.20;;;;;;;-1.90;74.99;95954.77;1779226;81;21290;-70
2021/04/17 03:56:15;;;;;;;4.90;3.13;;;;;;;-1.94;75.09;95951.63;1779219;81;21579;-70
2021/04/17 03:58:43;;;;;;;5.00;3.17;;;;;;;-1.93;75.48;95958.55;1779027;81;21114;-70
2021/04/17 04:01:10;;;;;;;5.17;3.20;;;;;;;-2.01;76.44;95955.70;1779653;81;21129;-70
2021/04/17 04:03:38;;;;;;;4.60;2.93;;;;;;;-2.09;76.84;95961.02;1779282;81;21279;-70
2021/04/17 04:06:07;;;;;;;3.90;2.90;;;;;;;-2.16;77.61;95962.04;1779548;81;21114;-70
2021/04/17 04:08:35;;;;;;;5.20;3.50;;;;;;;-2.12;78.12;95961.30;1779566;81;21164;-70
2021/04/17 04:11:04;;;;;;;7.83;3.60;;;;;;;-2.02;78.52;95964.27;1779389;81;21626;-70
2021/04/17 04:13:31;;;;;;;5.27;3.20;;;;;;;-1.99;78.76;95962.20;1784815;80;21145;-70
2021/04/17 04:15:59;;;;;;;7.13;3.83;;;;;;;-1.88;78.17;95964.77;1787918;80;21263;-70
2021/04/17 04:18:27;;;;;;;12.53;5.90;;;;;;;-1.79;78.32;95956.04;1787832;80;21279;-70
2021/04/17 04:20:55;;;;;;;14.20;6.57;;;;;;;-1.77;78.26;95956.95;1788083;80;21303;-70
2021/04/17 04:23:23;;;;;;;14.57;8.57;;;;;;;-1.67;77.82;95955.98;1787988;80;21260;-70
2021/04/17 04:25:50;;;;;;;21.03;13.10;;;;;;;-1.58;77.97;95955.88;1787825;80;21276;-70
2021/04/17 04:28:17;;;;;;;22.97;11.20;;;;;;;-1.51;77.18;95956.98;1787853;80;21315;-70
2021/04/17 04:30:46;;;;;;;29.33;11.70;;;;;;;-1.43;76.99;95961.98;1787880;80;21294;-70
2021/04/17 04:33:14;;;;;;;22.07;12.43;;;;;;;-1.43;76.86;95955.52;1787944;80;21697;-70
2021/04/17 04:35:42;;;;;;;22.73;11.80;;;;;;;-1.43;77.34;95948.17;1787922;80;21701;-70
2021/04/17 04:38:10;;;;;;;18.73;10.33;;;;;;;-1.35;77.92;95954.05;1787876;80;21295;-70
2021/04/17 04:40:37;;;;;;;17.30;8.60;;;;;;;-1.32;78.10;95945.51;1788007;80;21722;-70
2021/04/17 04:43:05;;;;;;;15.00;9.00;;;;;;;-1.26;78.43;95952.58;1787803;80;21259;-70
2021/04/17 04:45:32;;;;;;;16.93;9.73;;;;;;;-1.16;78.09;95947.78;1787893;80;21275;-70
2021/04/17 04:48:00;;;;;;;13.40;9.20;;;;;;;-1.03;77.63;95948.13;1787878;80;21714;-70
2021/04/17 04:50:28;;;;;;;16.13;9.10;;;;;;;-0.94;76.74;95950.60;1788097;80;21149;-70
2021/04/17 04:52:56;;;;;;;14.67;9.17;;;;;;;-0.79;76.37;95949.33;1787757;80;21311;-70
2021/04/17 04:55:23;;;;;;;12.27;7.43;;;;;;;-0.59;76.00;95947.34;1787857;80;21283;-70
2021/04/17 04:57:50;;;;;;;13.43;8.07;;;;;;;-0.46;75.42;95948.16;1787883;80;21279;-70
2021/04/17 05:00:18;;;;;;;14.17;9.57;;;;;;;-0.45;75.14;95944.75;1787757;80;21137;-70
2021/04/17 05:02:46;;;;;;;13.17;8.33;;;;;;;-0.41;74.85;95943.11;1787910;80;21264;-70
2021/04/17 05:05:14;;;;;;;13.33;8.23;;;;;;;-0.31;74.89;95939.95;1787882;80;21136;-70
2021/04/17 05:07:42;;;;;;;12.20;7.60;;;;;;;-0.25;74.23;95933.23;1787810;80;21122;-70
2021/04/17 05:10:11;;;;;;;12.77;7.60;;;;;;;-0.18;73.95;95938.58;1787864;80;21137;-70
2021/04/17 05:12:38;;;;;;;9.83;6.83;;;;;;;-0.17;74.30;95939.06;1787508;80;21618;-70
2021/04/17 05:15:08;;;;;;;10.53;6.87;;;;;;;-0.11;74.77;95942.68;1784893;80;21260;-70
2021/04/17 05:17:36;;;;;;;10.77;6.30;;;;;;;-0.06;74.88;95942.39;1785102;80;21148;-70
2021/04/17 05:20:06;;;;;;;8.03;5.40;;;;;;;0.03;74.34;95931.83;1785169;80;21709;-70
2021/04/17 05:22:33;;;;;;;11.17;6.80;;;;;;;0.16;73.97;95941.69;1785325;80;21149;-70
2021/04/17 05:25:02;;;;;;;11.20;6.73;;;;;;;0.24;73.84;95934.11;1785376;80;21105;-70
2021/04/17 05:27:29;;;;;;;8.27;6.07;;;;;;;0.44;73.47;95932.91;1785050;80;21319;-70
2021/04/17 05:29:57;;;;;;;10.50;7.50;;;;;;;0.57;72.38;95934.09;1785059;80;21709;-70
2021/04/17 05:32:25;;;;;;;10.43;6.50;;;;;;;0.71;72.46;95924.07;1785050;80;21295;-70
2021/04/17 05:34:54;;;;;;;8.10;6.03;;;;;;;0.82;72.41;95931.27;1784967;80;21149;-70
2021/04/17 05:37:22;;;;;;;8.57;5.83;;;;;;;0.97;72.20;95925.98;1785093;80;21718;-70
2021/04/17 05:39:49;;;;;;;8.23;5.63;;;;;;;1.08;72.20;95921.91;1785143;80;21686;-70
2021/04/17 05:42:17;;;;;;;7.80;5.37;;;;;;;1.20;71.96;95918.29;1785008;80;21321;-70
2021/04/17 05:44:44;;;;;;;8.77;6.07;;;;;;;1.33;71.61;95918.56;1784986;80;21284;-70
2021/04/17 05:47:11;;;;;;;8.47;5.63;;;;;;;1.42;71.38;95912.28;1785497;80;21138;-70
2021/04/17 05:49:39;;;;;;;9.50;5.27;;;;;;;1.50;71.23;95910.28;1785010;80;21291;-70
2021/04/17 05:52:08;;;;;;;8.07;5.60;;;;;;;1.50;71.07;95912.88;1785049;80;21591;-70
2021/04/17 05:54:35;;;;;;;8.83;5.93;;;;;;;1.60;71.01;95910.48;1785226;80;21117;-70
2021/04/17 05:57:03;;;;;;;8.60;5.10;;;;;;;1.73;70.85;95915.96;1785068;80;21141;-70
2021/04/17 05:59:31;;;;;;;8.10;4.90;;;;;;;1.88;70.06;95905.42;1756607;80;21177;-70
2021/04/17 06:01:58;;;;;;;4.93;3.93;;;;;;;2.00;70.06;95905.66;1785052;80;21267;-70
2021/04/17 06:04:26;;;;;;;5.27;3.80;;;;;;;2.16;70.16;95905.52;1784976;80;21248;-70
2021/04/17 06:06:53;;;;;;;8.47;4.23;;;;;;;2.29;69.60;95889.30;1785147;80;21283;-70
2021/04/17 06:09:21;;;;;;;13.20;7.93;;;;;;;2.40;69.36;95895.13;1785012;80;21105;-70
2021/04/17 06:11:49;;;;;;;32.67;15.10;;;;;;;2.52;67.83;95892.70;1785260;80;21153;-70
2021/04/17 06:14:16;;;;;;;9.77;5.43;;;;;;;2.56;67.28;95891.92;1737311;81;21156;-70
2021/04/17 06:16:44;;;;;;;6.80;3.90;;;;;;;2.64;67.60;95892.05;1758817;81;21129;-70
2021/04/17 06:19:11;;;;;;;5.77;3.73;;;;;;;2.79;67.57;95896.20;1758922;81;21283;-70
2021/04/17 06:21:40;;;;;;;4.63;3.30;;;;;;;2.89;66.76;95891.59;1758992;81;21274;-70
2021/04/17 06:24:08;;;;;;;6.73;3.93;;;;;;;3.01;66.95;95898.30;1758842;81;21610;-70
2021/04/17 06:26:38;;;;;;;6.80;4.77;;;;;;;3.09;66.04;95899.72;1729236;81;21114;-70
2021/04/17 06:29:06;;;;;;;6.83;4.87;;;;;;;3.20;65.81;95898.56;1758942;81;21164;-70
2021/04/17 06:31:34;;;;;;;5.40;4.03;;;;;;;3.36;66.02;95894.47;1758859;81;21307;-70
2021/04/17 06:34:02;;;;;;;7.00;4.07;;;;;;;3.54;65.99;95895.14;1759018;81;21583;-68
2021/04/17 06:36:30;;;;;;;5.77;3.80;;;;;;;3.69;65.64;95894.91;1759073;81;21153;-68
2021/04/17 06:38:57;;;;;;;6.13;3.50;;;;;;;3.84;65.28;95889.00;1758814;81;21302;-68
2021/04/17 06:41:27;;;;;;;4.60;3.43;;;;;;;3.95;64.31;95893.47;1758893;81;21291;-68
2021/04/17 06:43:56;;;;;;;5.63;3.70;;;;;;;4.08;64.74;95891.44;1759094;81;21283;-68
2021/04/17 06:46:26;;;;;;;5.60;3.50;;;;;;;4.22;64.56;95882.47;1758997;81;21143;-68
2021/04/17 06:48:54;;;;;;;4.17;3.10;;;;;;;4.32;64.43;95879.95;1758948;81;21120;-68
2021/04/17 06:51:22;;;;;;;5.17;3.57;;;;;;;4.41;63.35;95893.97;1759122;81;21153;-68
2021/04/17 06:53:51;;;;;;;4.13;3.20;;;;;;;4.49;63.35;95887.10;1758985;81;21722;-68
2021/04/17 06:56:19;;;;;;;4.57;3.10;;;;;;;4.52;61.44;95887.99;1759163;81;21705;-68
2021/04/17 06:58:47;;;;;;;5.30;3.60;;;;;;;4.65;62.71;95895.95;1729815;81;21120;-68
2021/04/17 07:01:16;;;;;;;5.03;3.60;;;;;;;4.78;61.82;95894.75;1729482;81;21140;-68
2021/04/17 07:03:44;;;;;;;6.47;4.50;;;;;;;4.89;61.11;95891.34;1758892;81;21267;-67
2021/04/17 07:06:12;;;;;;;4.70;3.27;;;;;;;4.95;58.57;95888.36;1758972;81;21161;-67
2021/04/17 07:08:42;;;;;;;4.77;3.33;;;;;;;5.03;59.79;95891.47;1758890;81;21721;-68
2021/04/17 07:11:11;;;;;;;4.77;3.50;;;;;;;5.06;58.60;95894.11;1758888;81;21294;-68
2021/04/17 07:13:42;;;;;;;4.83;4.10;;;;;;;5.09;58.30;95890.20;1765273;80;21681;-68
2021/04/17 07:16:12;;;;;;;5.00;3.80;;;;;;;5.22;59.54;95889.44;1772820;81;21291;-68
2021/04/17 07:18:40;;;;;;;4.10;3.27;;;;;;;5.28;58.76;95884.23;1779257;81;21137;-68
2021/04/17 07:21:20;;;;;;;6.77;4.23;;;;;;;5.35;59.35;95886.03;1779094;81;21267;-68
2021/04/17 07:23:49;;;;;;;4.40;3.40;;;;;;;5.41;58.35;95882.12;1779626;81;21086;-68
2021/04/17 07:26:22;;;;;;;6.40;4.03;;;;;;;5.48;58.27;95890.91;1779237;81;21276;-67
2021/04/17 07:29:17;;;;;;;7.22;5.28;;;;;;;5.59;58.58;95880.48;1779658;81;21117;-68
2021/04/17 07:31:54;;;;;;;7.27;5.17;;;;;;;5.67;57.97;95883.14;1775626;81;21174;-68
2021/04/17 07:34:25;;;;;;;6.33;4.30;;;;;;;5.75;57.93;95874.48;1779421;81;21278;-68
2021/04/17 07:36:59;;;;;;;8.97;4.23;;;;;;;5.81;57.73;95873.62;1779506;81;21563;-68
2021/04/17 07:39:37;;;;;;;8.37;5.73;;;;;;;5.92;57.51;95871.03;1779617;81;21260;-68
2021/04/17 07:42:15;;;;;;;7.40;5.17;;;;;;;6.11;58.12;95866.78;1779547;81;21153;-68
2021/04/17 07:44:48;;;;;;;7.53;5.07;;;;;;;6.28;57.16;95862.47;1779298;81;21264;-68
2021/04/17 07:47:34;;;;;;;6.93;5.30;;;;;;;6.51;57.72;95859.89;1779599;80;21122;-68
2021/04/17 07:50:06;;;;;;;9.63;6.20;;;;;;;6.59;56.31;95861.20;1779691;81;21098;-68
2021/04/17 07:52:35;;;;;;;7.60;5.13;;;;;;;6.73;57.82;95848.98;1779274;80;21300;-68
2021/04/17 07:55:08;;;;;;;6.40;5.03;;;;;;;6.86;56.34;95848.11;1779277;81;21284;-68
2021/04/17 07:57:45;;;;;;;6.47;4.77;;;;;;;6.92;55.55;95843.29;1779479;81;21533;-68
2021/04/17 08:00:20;;;;;;;7.80;5.60;;;;;;;6.92;55.62;95843.29;1779290;81;21683;-68
2021/04/17 08:02:53;;;;;;;7.00;5.47;;;;;;;7.01;55.38;95850.30;1779638;81;21114;-67
2021/04/17 08:05:25;;;;;;;6.90;4.93;;;;;;;7.13;55.31;95849.84;1779403;81;21267;-68
2021/04/17 08:07:54;;;;;;;6.80;5.37;;;;;;;7.29;55.31;95835.38;1779369;81;21141;-68
2021/04/17 08:10:22;;;;;;;6.20;4.73;;;;;;;7.42;55.70;95832.30;1779668;81;21158;-68
2021/04/17 08:12:50;;;;;;;6.83;4.97;;;;;;;7.44;54.54;95824.84;1779655;81;21110;-68
2021/04/17 08:15:20;;;;;;;7.63;5.50;;;;;;;7.57;55.18;95828.30;1779028;81;21721;-68
2021/04/17 08:17:53;;;;;;;7.07;5.07;;;;;;;7.71;55.15;95828.24;1779502;81;21154;-68
2021/04/17 08:20:22;;;;;;;7.43;5.83;;;;;;;7.79;54.27;95823.86;1779569;81;21121;-68
2021/04/17 08:22:52;;;;;;;7.60;5.47;;;;;;;7.74;52.80;95822.55;1779289;81;21160;-68
2021/04/17 08:25:24;;;;;;;6.33;5.10;;;;;;;7.83;52.57;95821.63;1779422;81;21292;-68
2021/04/17 08:27:52;;;;;;;9.07;6.97;;;;;;;7.92;55.08;95821.60;1779796;81;21133;-68
2021/04/17 08:30:27;;;;;;;7.53;5.20;;;;;;;8.06;51.91;95816.27;1779298;81;21132;-68
2021/04/17 08:33:19;;;;;;;9.90;7.07;;;;;;;8.15;53.56;95821.48;1779844;81;21161;-68
2021/04/17 08:35:47;;;;;;;6.43;4.90;;;;;;;8.27;53.02;95817.05;1779356;81;21252;-68
2021/04/17 08:38:16;;;;;;;4.50;3.83;;;;;;;8.44;51.72;95818.72;1779134;81;21276;-68
2021/04/17 08:40:48;;;;;;;7.27;5.17;;;;;;;8.57;54.12;95818.19;1779565;81;21141;-68
2021/04/17 08:43:21;;;;;;;7.87;5.17;;;;;;;8.56;52.11;95809.84;1779366;81;21110;-68
2021/04/17 08:46:15;;;;;;;6.60;5.07;;;;;;;8.74;50.17;95807.97;1779214;81;21125;-68
2021/04/17 08:48:53;;;;;;;33.57;22.87;;;;;;;8.93;51.47;95802.98;1779596;81;21576;-68
2021/04/17 08:51:26;;;;;;;7.17;5.40;;;;;;;9.02;49.02;95793.70;1779454;81;21095;-68
2021/04/17 08:54:05;;;;;;;7.53;5.33;;;;;;;9.21;50.25;95790.43;1779476;81;21117;-68
2021/04/17 08:56:56;;;;;;;6.80;4.80;;;;;;;9.30;46.61;95789.48;1778678;80;21260;-68
2021/04/17 08:59:35;;;;;;;6.57;5.03;;;;;;;9.34;47.96;95779.33;1779484;81;21090;-68
2021/04/17 09:02:17;;;;;;;6.20;4.70;;;;;;;9.36;49.02;95776.69;1779345;81;21543;-68
2021/04/17 09:05:09;;;;;;;5.35;4.65;;;;;;;9.28;48.59;95777.63;1779793;81;21153;-68
2021/04/17 09:07:43;;;;;;;5.70;4.83;;;;;;;9.44;48.49;95781.42;1779366;81;21248;-68
2021/04/17 09:10:31;;;;;;;6.23;4.70;;;;;;;9.73;49.27;95768.78;1779566;81;21701;-68
2021/04/17 09:13:18;;;;;;;8.10;5.13;;;;;;;10.01;47.82;95772.38;1779304;81;21567;-68
2021/04/17 09:15:55;;;;;;;4.93;4.20;;;;;;;10.01;46.24;95771.05;1779294;80;21164;-68
2021/04/17 09:18:38;;;;;;;5.87;4.93;;;;;;;10.33;44.80;95767.11;1779403;81;21170;-68
2021/04/17 09:21:22;;;;;;;6.30;4.93;;;;;;;10.49;45.81;95766.00;1779310;81;21256;-68
2021/04/17 09:23:53;;;;;;;4.17;3.73;;;;;;;10.40;43.93;95761.72;1779326;81;21256;-68
2021/04/17 09:26:34;;;;;;;5.30;4.30;;;;;;;10.29;41.10;95757.52;1779518;81;21128;-68
2021/04/17 09:29:22;;;;;;;5.97;4.43;;;;;;;10.17;43.16;95754.56;1779344;81;21295;-68
2021/04/17 09:31:51;;;;;;;5.50;4.43;;;;;;;10.27;44.60;95758.81;1779189;81;21311;-68
2021/04/17 09:34:20;;;;;;;7.17;5.23;;;;;;;10.61;44.64;95755.25;1779434;81;21098;-68
2021/04/17 09:36:50;;;;;;;6.43;4.87;;;;;;;10.86;43.95;95747.35;1779694;81;21153;-68
2021/04/17 09:39:30;;;;;;;5.60;4.43;;;;;;;10.96;42.57;95742.33;1779390;81;21694;-68
2021/04/17 09:42:03;;;;;;;8.60;6.80;;;;;;;11.13;41.23;95739.40;1779315;81;21145;-68
2021/04/17 09:44:46;;;;;;;7.53;5.22;;;;;;;11.06;41.13;95737.31;1779446;81;21143;-68
2021/04/17 09:47:16;;;;;;;4.50;4.03;;;;;;;11.21;44.47;95728.23;1779488;81;21158;-68
2021/04/17 09:49:48;;;;;;;7.37;4.93;;;;;;;11.37;43.29;95728.38;1779325;81;21130;-68
2021/04/17 09:52:21;;;;;;;4.87;4.27;;;;;;;11.44;43.70;95722.50;1779521;81;21181;-68
2021/04/17 09:55:05;;;;;;;6.63;5.10;;;;;;;11.43;41.67;95730.88;1779233;81;21256;-68
2021/04/17 09:57:33;;;;;;;8.00;5.70;;;;;;;11.51;41.81;95714.02;1779649;81;21564;-68
2021/04/17 10:00:04;;;;;;;6.00;4.67;;;;;;;11.58;40.37;95712.53;1779171;81;21280;-68
2021/04/17 10:02:46;;;;;;;6.07;4.90;;;;;;;11.77;42.41;95710.81;1779532;81;21508;-68
2021/04/17 10:05:16;;;;;;;5.47;4.27;;;;;;;12.09;39.14;95710.15;1779481;81;21543;-68
2021/04/17 10:07:50;;;;;;;5.30;4.10;;;;;;;12.24;40.96;95712.44;1779301;81;21287;-68
2021/04/17 10:10:17;;;;;;;5.27;4.37;;;;;;;12.33;37.95;95707.41;1779406;81;21263;-68
2021/04/17 10:12:52;;;;;;;5.33;4.30;;;;;;;12.31;39.63;95709.20;1779779;81;21172;-68
2021/04/17 10:15:28;;;;;;;4.90;3.70;;;;;;;12.42;40.33;95717.75;1778977;80;21113;-69
2021/04/17 10:17:59;;;;;;;5.33;4.10;;;;;;;12.42;38.26;95712.45;1785267;80;21264;-68
2021/04/17 10:20:28;;;;;;;6.53;4.63;;;;;;;12.57;41.60;95701.95;1785071;80;21256;-69
2021/04/17 10:23:01;;;;;;;4.97;4.47;;;;;;;12.67;41.71;95707.89;1785344;80;21149;-68
2021/04/17 10:25:41;;;;;;;8.83;6.17;;;;;;;12.82;40.29;95701.34;1785184;80;21271;-68
2021/04/17 10:28:16;;;;;;;5.43;4.37;;;;;;;12.50;36.38;95690.67;1785228;80;21706;-68
2021/04/17 10:30:48;;;;;;;6.13;4.80;;;;;;;12.64;42.70;95693.42;1784838;80;21276;-68
2021/04/17 10:33:24;;;;;;;5.27;4.77;;;;;;;12.97;40.25;95691.22;1785061;80;21322;-68
2021/04/17 10:35:56;;;;;;;7.57;5.43;;;;;;;13.28;41.21;95685.15;1785099;80;21691;-68
2021/04/17 10:38:28;;;;;;;9.60;6.73;;;;;;;13.55;41.64;95684.80;1785172;80;21698;-68
2021/04/17 10:40:58;;;;;;;5.83;4.80;;;;;;;13.62;40.22;95688.16;1785145;80;21276;-69
2021/04/17 10:43:28;;;;;;;9.07;7.20;;;;;;;13.61;38.94;95678.48;1785162;80;21271;-68
2021/04/17 10:46:04;;;;;;;6.87;5.87;;;;;;;13.72;38.62;95679.48;1784928;80;21135;-68
2021/04/17 10:48:46;;;;;;;7.63;5.23;;;;;;;13.59;36.14;95673.67;1785111;80;21706;-68
2021/04/17 10:51:17;;;;;;;6.67;5.73;;;;;;;13.78;38.65;95672.66;1784781;80;21093;-68
2021/04/17 10:53:49;;;;;;;6.47;5.63;;;;;;;13.98;38.13;95674.24;1785241;80;21552;-68
2021/04/17 10:56:20;;;;;;;5.13;4.60;;;;;;;14.00;37.66;95665.78;1785069;80;21153;-68
2021/04/17 10:59:00;;;;;;;6.97;5.63;;;;;;;14.20;41.14;95663.84;1785068;80;21268;-68
2021/04/17 11:01:38;;;;;;;8.60;7.47;;;;;;;14.11;35.82;95660.59;1785107;80;21551;-69
2021/04/17 11:04:04;;;;;;;6.47;4.57;;;;;;;13.97;38.37;95659.25;1784412;80;21319;-68
2021/04/17 11:06:37;;;;;;;7.40;5.27;;;;;;;13.86;37.56;95658.73;1785018;80;21140;-68
2021/04/17 11:09:22;;;;;;;6.25;5.55;;;;;;;13.90;37.63;95657.70;1785182;80;21282;-69
2021/04/17 11:12:01;;;;;;;6.23;5.23;;;;;;;13.99;33.56;95648.61;1757274;80;21575;-68
2021/04/17 11:14:30;;;;;;;10.27;9.17;;;;;;;14.06;34.91;95650.13;1784959;80;21141;-68
2021/04/17 11:16:58;;;;;;;6.97;5.30;;;;;;;13.93;36.47;95651.43;1785081;80;21160;-68
2021/04/17 11:19:30;;;;;;;8.20;7.33;;;;;;;13.93;35.06;95651.43;1785082;80;21717;-68
2021/04/17 11:22:20;;;;;;;6.27;4.70;;;;;;;13.89;34.48;95645.83;1785433;80;21137;-68
2021/04/17 11:25:04;;;;;;;10.50;7.57;;;;;;;14.07;36.32;95642.59;1785236;80;21267;-68
2021/04/17 11:27:34;;;;;;;8.80;7.03;;;;;;;13.86;37.27;95644.14;1785409;80;21125;-68
2021/04/17 11:30:07;;;;;;;8.43;6.23;;;;;;;14.39;36.34;95635.37;1785102;80;21733;-69
2021/04/17 11:32:36;;;;;;;6.80;5.27;;;;;;;14.86;35.44;95636.45;1785310;80;21149;-68
2021/04/17 11:35:07;;;;;;;6.73;5.53;;;;;;;15.14;33.71;95636.81;1785307;80;21430;-69
2021/04/17 11:37:35;;;;;;;6.80;5.10;;;;;;;14.94;32.41;95641.50;1785371;80;21098;-68
2021/04/17 11:40:05;;;;;;;10.57;9.47;;;;;;;14.80;34.96;95631.84;1785125;80;21275;-69
2021/04/17 11:42:33;;;;;;;6.00;5.40;;;;;;;15.07;33.05;95641.97;1785048;80;21294;-68
2021/04/17 11:45:00;;;;;;;4.95;4.15;;;;;;;15.63;33.87;95634.17;1785404;80;21128;-68
2021/04/17 11:47:27;;;;;;;5.90;4.72;;;;;;;15.95;32.24;95631.61;1785056;80;21137;-68
2021/04/17 11:49:56;;;;;;;5.10;4.60;;;;;;;16.10;31.31;95626.15;1785056;80;21176;-68
2021/04/17 11:52:24;;;;;;;5.22;4.72;;;;;;;16.37;31.47;95617.52;1784947;80;21295;-68
2021/04/17 11:54:52;;;;;;;5.62;4.80;;;;;;;16.84;33.27;95620.03;1784849;80;21295;-69